Time;durP1;ratioP1;P1;durP2;ratioP2;P2;SDS_P1;SDS_P2;PMS_P1;PMS_P2;Temp;Humidity;BMP_temperature;BMP_pressure;BME280_temperature;BME280_humidity;BME280_pressure;Samples;Min_cycle;Max_cycle;Signal;HPM_P1;HPM_P2
2022/08/21 00:01:46;;;;;;;8.63;7.30;;;;;;;;;;10259027;28;20101;-72
2022/08/21 00:06:46;;;;;;;10.63;7.22;;;;;;;;;;10275069;28;20038;-75
2022/08/21 00:11:47;;;;;;;10.97;7.13;;;;;;;;;;10270867;28;20117;-73
2022/08/21 00:16:48;;;;;;;8.90;7.32;;;;;;;;;;10273149;28;20296;-75
2022/08/21 00:21:48;;;;;;;10.88;7.72;;;;;;;;;;10272624;28;20511;-72
2022/08/21 00:26:48;;;;;;;10.53;7.60;;;;;;;;;;10280700;28;20768;-72
2022/08/21 00:31:49;;;;;;;11.82;9.63;;;;;;;;;;10277586;28;20353;-73
2022/08/21 00:36:50;;;;;;;10.13;7.23;;;;;;;;;;10282038;28;20042;-73
2022/08/21 00:41:50;;;;;;;10.68;7.63;;;;;;;;;;10264194;28;20042;-72
2022/08/21 00:46:50;;;;;;;8.80;6.47;;;;;;;;;;10271793;28;20061;-72
2022/08/21 00:51:53;;;;;;;7.83;6.47;;;;;;;;;;10272890;28;20297;-73
2022/08/21 00:56:56;;;;;;;8.00;6.55;;;;;;;;;;10269899;28;20324;-71
2022/08/21 01:01:56;;;;;;;8.88;7.00;;;;;;;;;;10276943;28;20062;-73
2022/08/21 01:06:57;;;;;;;8.05;7.15;;;;;;;;;;10253200;28;20490;-74
2022/08/21 01:11:57;;;;;;;9.15;6.90;;;;;;;;;;10276418;28;20042;-73
2022/08/21 01:16:58;;;;;;;9.43;7.72;;;;;;;;;;10276472;28;20054;-72
2022/08/21 01:21:59;;;;;;;8.45;6.53;;;;;;;;;;10276072;28;20035;-72
2022/08/21 01:27:00;;;;;;;9.32;7.07;;;;;;;;;;10262902;28;20470;-72
2022/08/21 01:32:05;;;;;;;7.25;5.68;;;;;;;;;;10283116;28;20035;-72
2022/08/21 01:37:06;;;;;;;7.85;5.85;;;;;;;;;;10276603;28;20542;-72
2022/08/21 01:42:06;;;;;;;6.97;6.28;;;;;;;;;;10268601;28;20083;-74
2022/08/21 01:47:09;;;;;;;7.93;6.50;;;;;;;;;;10274337;28;20058;-73
2022/08/21 01:52:11;;;;;;;8.50;7.00;;;;;;;;;;10268731;28;20038;-72
2022/08/21 01:57:11;;;;;;;7.95;7.03;;;;;;;;;;10281625;28;20035;-73
2022/08/21 02:02:12;;;;;;;8.25;7.13;;;;;;;;;;10279166;28;20039;-72
2022/08/21 02:07:13;;;;;;;11.07;7.70;;;;;;;;;;10278897;28;20113;-72
2022/08/21 02:12:13;;;;;;;10.68;7.93;;;;;;;;;;10277301;28;20098;-75
2022/08/21 02:17:14;;;;;;;9.03;7.40;;;;;;;;;;10279319;28;20464;-75
2022/08/21 02:22:15;;;;;;;16.50;7.90;;;;;;;;;;10280180;28;20329;-75
2022/08/21 02:27:15;;;;;;;10.45;7.78;;;;;;;;;;10275905;28;20038;-72
2022/08/21 02:32:15;;;;;;;10.30;7.75;;;;;;;;;;10287944;28;20027;-73
2022/08/21 02:37:16;;;;;;;11.50;8.07;;;;;;;;;;10283906;28;20035;-73
2022/08/21 02:42:16;;;;;;;10.63;7.85;;;;;;;;;;10282669;28;20070;-73
2022/08/21 02:47:17;;;;;;;8.82;6.55;;;;;;;;;;10260767;28;20054;-73
2022/08/21 02:52:17;;;;;;;9.23;6.47;;;;;;;;;;10279154;28;20101;-73
2022/08/21 02:57:19;;;;;;;8.93;6.93;;;;;;;;;;10277158;28;20106;-72
2022/08/21 03:02:21;;;;;;;9.55;7.32;;;;;;;;;;10286878;28;20301;-71
2022/08/21 03:13:32;;;;;;;12.73;8.55;;;;;;;;;;10271964;28;20023;-72
2022/08/21 03:18:33;;;;;;;14.83;11.20;;;;;;;;;;10259870;28;20864;-74
2022/08/21 03:23:33;;;;;;;12.63;9.95;;;;;;;;;;10261896;28;20699;-73
2022/08/21 03:28:34;;;;;;;11.55;8.98;;;;;;;;;;10278044;28;20045;-73
2022/08/21 03:33:34;;;;;;;11.20;8.57;;;;;;;;;;10275165;28;20042;-74
2022/08/21 03:38:35;;;;;;;12.20;8.88;;;;;;;;;;10274508;28;20043;-73
2022/08/21 03:43:36;;;;;;;15.35;9.88;;;;;;;;;;10272500;28;20420;-74
2022/08/21 03:48:36;;;;;;;21.33;12.35;;;;;;;;;;10261603;28;20102;-73
2022/08/21 03:53:37;;;;;;;18.05;11.00;;;;;;;;;;10255439;28;20046;-74
2022/08/21 03:58:38;;;;;;;36.40;12.63;;;;;;;;;;10276744;28;20125;-76
2022/08/21 04:03:38;;;;;;;32.03;10.80;;;;;;;;;;10281146;28;20051;-74
2022/08/21 04:08:40;;;;;;;73.60;13.80;;;;;;;;;;10275940;28;20046;-73
2022/08/21 04:13:40;;;;;;;11.80;9.30;;;;;;;;;;10272797;28;20352;-74
2022/08/21 04:18:41;;;;;;;15.32;10.30;;;;;;;;;;10257207;28;20379;-73
2022/08/21 04:23:42;;;;;;;15.77;9.40;;;;;;;;;;10260623;28;20037;-73
2022/08/21 04:28:43;;;;;;;15.15;9.82;;;;;;;;;;10278653;28;20046;-75
2022/08/21 04:33:44;;;;;;;23.23;10.35;;;;;;;;;;10257792;28;20034;-74
2022/08/21 04:38:45;;;;;;;52.50;13.15;;;;;;;;;;10273431;28;20047;-74
2022/08/21 04:43:45;;;;;;;35.90;12.47;;;;;;;;;;10257423;28;20043;-72
2022/08/21 04:48:45;;;;;;;14.83;9.90;;;;;;;;;;10278313;28;20630;-73
2022/08/21 04:53:51;;;;;;;20.13;10.68;;;;;;;;;;10274214;28;20393;-72
2022/08/21 04:58:52;;;;;;;113.25;14.25;;;;;;;;;;10256663;28;20479;-72
2022/08/21 05:03:55;;;;;;;67.03;13.50;;;;;;;;;;10254037;28;20043;-74
2022/08/21 05:08:57;;;;;;;31.90;11.90;;;;;;;;;;10271524;28;20035;-73
2022/08/21 05:13:58;;;;;;;26.30;12.68;;;;;;;;;;10272323;28;20038;-72
2022/08/21 05:18:58;;;;;;;38.40;11.52;;;;;;;;;;10254692;28;20075;-71
2022/08/21 05:23:59;;;;;;;23.60;11.07;;;;;;;;;;10263143;28;20053;-71
2022/08/21 05:28:59;;;;;;;65.22;15.30;;;;;;;;;;10274170;28;20049;-73
2022/08/21 05:34:00;;;;;;;36.72;11.93;;;;;;;;;;10257758;28;20039;-74
2022/08/21 05:39:00;;;;;;;39.00;12.75;;;;;;;;;;10272367;28;20050;-72
2022/08/21 05:44:00;;;;;;;13.77;9.77;;;;;;;;;;10273666;28;20061;-73
2022/08/21 05:49:01;;;;;;;16.73;9.20;;;;;;;;;;10251285;28;20152;-75
2022/08/21 05:54:02;;;;;;;24.20;11.93;;;;;;;;;;10270779;28;20275;-72
2022/08/21 05:59:03;;;;;;;94.45;17.92;;;;;;;;;;10267069;28;20309;-74
2022/08/21 06:04:03;;;;;;;62.35;14.70;;;;;;;;;;10265826;28;20043;-74
2022/08/21 06:09:04;;;;;;;16.20;11.20;;;;;;;;;;10268136;28;20863;-74
2022/08/21 06:14:06;;;;;;;22.00;11.57;;;;;;;;;;10283771;28;20053;-71
2022/08/21 06:19:06;;;;;;;30.33;13.32;;;;;;;;;;10282347;28;20050;-73
2022/08/21 06:24:07;;;;;;;66.40;14.57;;;;;;;;;;10281855;28;20395;-71
2022/08/21 06:29:10;;;;;;;48.72;15.00;;;;;;;;;;10279516;28;20043;-72
2022/08/21 06:34:10;;;;;;;26.27;13.77;;;;;;;;;;10275565;28;20707;-72
2022/08/21 06:39:11;;;;;;;25.02;12.52;;;;;;;;;;10266115;28;20045;-72
2022/08/21 06:44:11;;;;;;;23.27;12.83;;;;;;;;;;10282250;28;20162;-71
2022/08/21 06:49:12;;;;;;;25.10;12.73;;;;;;;;;;10259036;28;20283;-83
2022/08/21 06:54:13;;;;;;;26.45;14.90;;;;;;;;;;10278485;28;20067;-81
2022/08/21 06:59:13;;;;;;;26.73;14.17;;;;;;;;;;10281381;28;20137;-82
2022/08/21 07:04:13;;;;;;;31.23;14.90;;;;;;;;;;10276823;28;20665;-73
2022/08/21 07:09:14;;;;;;;29.73;13.57;;;;;;;;;;10283233;28;20612;-79
2022/08/21 07:14:15;;;;;;;32.78;14.57;;;;;;;;;;10282716;28;20034;-83
2022/08/21 07:19:15;;;;;;;25.45;15.07;;;;;;;;;;10276513;28;20348;-78
2022/08/21 07:24:15;;;;;;;21.23;13.07;;;;;;;;;;10273866;28;20498;-81
2022/08/21 07:29:16;;;;;;;17.50;12.10;;;;;;;;;;10259861;28;20046;-74
2022/08/21 07:34:16;;;;;;;20.73;13.57;;;;;;;;;;10258057;28;20291;-77
2022/08/21 07:39:17;;;;;;;17.38;12.05;;;;;;;;;;10268041;28;20357;-76
2022/08/21 07:44:17;;;;;;;19.88;13.10;;;;;;;;;;10276413;28;20043;-73
2022/08/21 07:49:17;;;;;;;21.33;13.57;;;;;;;;;;10277232;28;20087;-75
2022/08/21 07:54:18;;;;;;;22.17;13.47;;;;;;;;;;10278459;28;20282;-73
2022/08/21 07:59:18;;;;;;;18.35;11.88;;;;;;;;;;10276077;28;20034;-76
2022/08/21 08:04:19;;;;;;;22.92;14.82;;;;;;;;;;10257659;28;20141;-77
2022/08/21 08:09:19;;;;;;;18.65;12.38;;;;;;;;;;10271488;28;20168;-76
2022/08/21 08:14:19;;;;;;;19.38;14.07;;;;;;;;;;10275149;28;20083;-77
2022/08/21 08:19:20;;;;;;;18.17;13.00;;;;;;;;;;10271974;28;20172;-76
2022/08/21 08:24:20;;;;;;;16.70;12.43;;;;;;;;;;10271729;28;20412;-77
2022/08/21 08:29:21;;;;;;;20.27;14.35;;;;;;;;;;10284051;28;20038;-76
2022/08/21 08:34:22;;;;;;;19.27;15.48;;;;;;;;;;10278293;28;20518;-73
2022/08/21 08:39:23;;;;;;;20.80;15.90;;;;;;;;;;10276012;28;20041;-74
2022/08/21 08:44:23;;;;;;;19.30;14.68;;;;;;;;;;10275872;28;20047;-77
2022/08/21 08:49:29;;;;;;;17.48;13.52;;;;;;;;;;10274261;28;20090;-73
2022/08/21 08:54:41;;;;;;;21.98;16.90;;;;;;;;;;10268547;28;20035;-74
2022/08/21 08:59:51;;;;;;;18.58;14.82;;;;;;;;;;10267823;28;20039;-74
2022/08/21 09:04:52;;;;;;;18.42;15.15;;;;;;;;;;10274255;28;20058;-71
2022/08/21 09:09:57;;;;;;;17.30;14.20;;;;;;;;;;10267023;28;20087;-72
2022/08/21 09:15:26;;;;;;;18.52;14.43;;;;;;;;;;10276463;28;20078;-72
2022/08/21 09:20:55;;;;;;;17.70;14.23;;;;;;;;;;10258330;28;20513;-73
2022/08/21 09:26:01;;;;;;;17.73;14.05;;;;;;;;;;10144295;29;20597;-72
2022/08/21 09:31:05;;;;;;;18.60;14.68;;;;;;;;;;10244671;28;20351;-77
2022/08/21 09:36:06;;;;;;;17.48;13.73;;;;;;;;;;10254463;28;20038;-75
2022/08/21 09:41:08;;;;;;;17.38;13.57;;;;;;;;;;10250875;28;20316;-76
2022/08/21 09:46:19;;;;;;;15.65;12.70;;;;;;;;;;10275509;28;20540;-75
2022/08/21 09:51:22;;;;;;;17.77;14.30;;;;;;;;;;10273960;28;20439;-77
2022/08/21 10:02:15;;;;;;;16.00;14.10;;;;;;;;;;10282279;28;20475;-79
2022/08/21 10:07:19;;;;;;;16.20;14.48;;;;;;;;;;10283437;28;20038;-74
2022/08/21 10:12:28;;;;;;;14.25;11.88;;;;;;;;;;10255083;28;20058;-76
2022/08/21 10:17:43;;;;;;;16.23;13.77;;;;;;;;;;10287681;28;20043;-77
2022/08/21 10:23:04;;;;;;;14.57;12.80;;;;;;;;;;10278239;28;20046;-76
2022/08/21 10:28:16;;;;;;;15.55;13.52;;;;;;;;;;10269880;28;20051;-74
2022/08/21 10:33:22;;;;;;;14.40;12.90;;;;;;;;;;10280620;28;20105;-70
2022/08/21 10:38:41;;;;;;;14.90;12.77;;;;;;;;;;10278217;28;20038;-70
2022/08/21 10:43:59;;;;;;;14.45;12.93;;;;;;;;;;10281012;28;20454;-70
2022/08/21 10:49:02;;;;;;;12.90;11.60;;;;;;;;;;10275702;28;20037;-71
2022/08/21 10:54:09;;;;;;;13.82;11.77;;;;;;;;;;10267159;28;20042;-86
2022/08/21 10:59:13;;;;;;;13.35;11.77;;;;;;;;;;10259976;28;20109;-78
2022/08/21 11:04:23;;;;;;;12.77;11.40;;;;;;;;;;10279936;28;20126;-75
2022/08/21 11:09:25;;;;;;;11.45;10.23;;;;;;;;;;10274990;28;20138;-78
2022/08/21 11:14:44;;;;;;;10.93;9.80;;;;;;;;;;10284273;28;20332;-81
2022/08/21 11:19:47;;;;;;;9.10;8.20;;;;;;;;;;10270367;28;20039;-76
2022/08/21 11:24:56;;;;;;;8.52;7.70;;;;;;;;;;10277743;28;20062;-82
2022/08/21 11:29:57;;;;;;;7.95;7.13;;;;;;;;;;10264143;28;20102;-79
2022/08/21 11:35:05;;;;;;;8.70;7.30;;;;;;;;;;10277768;28;20113;-74
2022/08/21 11:40:12;;;;;;;6.10;5.57;;;;;;;;;;10263915;28;20144;-80
2022/08/21 11:45:30;;;;;;;9.90;6.05;;;;;;;;;;10290947;28;20291;-74
2022/08/21 11:50:31;;;;;;;7.68;6.88;;;;;;;;;;10282871;28;20077;-78
2022/08/21 11:55:33;;;;;;;5.78;5.22;;;;;;;;;;10278380;28;20477;-76
2022/08/21 12:00:44;;;;;;;6.32;5.13;;;;;;;;;;10303151;28;20066;-75
2022/08/21 12:05:51;;;;;;;8.27;5.78;;;;;;;;;;10289314;28;20045;-75
2022/08/21 12:11:06;;;;;;;8.27;6.97;;;;;;;;;;10286756;28;20414;-75
2022/08/21 12:16:10;;;;;;;5.53;5.03;;;;;;;;;;10280604;28;20033;-74
2022/08/21 12:21:17;;;;;;;5.38;4.68;;;;;;;;;;10256557;28;20157;-77
2022/08/21 12:26:26;;;;;;;5.32;4.82;;;;;;;;;;10239915;28;20057;-75
2022/08/21 12:31:27;;;;;;;5.43;4.60;;;;;;;;;;10277889;28;20122;-76
2022/08/21 12:36:48;;;;;;;6.07;4.72;;;;;;;;;;10275603;28;20098;-74
2022/08/21 12:41:51;;;;;;;4.55;4.15;;;;;;;;;;10269702;28;20088;-75
2022/08/21 12:46:56;;;;;;;4.30;3.90;;;;;;;;;;10270087;28;20046;-75
2022/08/21 12:52:01;;;;;;;4.25;3.85;;;;;;;;;;10274794;28;20041;-75
2022/08/21 12:57:03;;;;;;;5.18;4.35;;;;;;;;;;10265591;28;20038;-75
2022/08/21 13:02:10;;;;;;;5.10;4.70;;;;;;;;;;10260371;28;20055;-76
2022/08/21 13:07:14;;;;;;;5.40;4.40;;;;;;;;;;10257005;28;20494;-76
2022/08/21 13:12:15;;;;;;;4.90;4.40;;;;;;;;;;10273023;28;20054;-76
2022/08/21 13:17:20;;;;;;;4.75;4.28;;;;;;;;;;10268686;28;20077;-76
2022/08/21 13:22:20;;;;;;;5.25;4.72;;;;;;;;;;10271930;28;20490;-76
2022/08/21 13:27:28;;;;;;;24.90;5.00;;;;;;;;;;10264952;28;20039;-76
2022/08/21 13:32:30;;;;;;;5.35;4.28;;;;;;;;;;10273465;28;20126;-77
2022/08/21 13:37:30;;;;;;;4.43;4.03;;;;;;;;;;10254313;28;20039;-75
2022/08/21 13:42:31;;;;;;;4.60;4.20;;;;;;;;;;10266019;28;20099;-77
2022/08/21 13:47:32;;;;;;;4.50;4.10;;;;;;;;;;10257220;28;20043;-78
2022/08/21 13:52:33;;;;;;;4.03;3.73;;;;;;;;;;10260791;28;20094;-76
2022/08/21 13:57:34;;;;;;;4.00;3.70;;;;;;;;;;10255662;28;20047;-76
2022/08/21 14:02:37;;;;;;;4.53;3.93;;;;;;;;;;10255591;28;20054;-77
2022/08/21 14:07:39;;;;;;;4.03;3.67;;;;;;;;;;10278230;28;20144;-76
2022/08/21 14:12:39;;;;;;;;;;;;;;;;;;10267791;28;20090;-76
2022/08/21 14:17:41;;;;;;;5.05;3.92;;;;;;;;;;10282050;28;20006;-76
2022/08/21 14:22:41;;;;;;;;;;;;;;;;;;10258746;28;20189;-76
2022/08/21 14:27:44;;;;;;;3.60;3.22;;;;;;;;;;10265178;28;20000;-77
2022/08/21 14:32:45;;;;;;;4.25;3.85;;;;;;;;;;10278885;28;20033;-76
2022/08/21 14:37:46;;;;;;;3.40;3.07;;;;;;;;;;10262449;28;20455;-76
2022/08/21 14:42:46;;;;;;;3.83;3.53;;;;;;;;;;10283246;28;20113;-77
2022/08/21 14:47:47;;;;;;;3.70;3.30;;;;;;;;;;10286823;28;20042;-76
2022/08/21 14:52:47;;;;;;;3.33;3.03;;;;;;;;;;10301986;28;20110;-77
2022/08/21 14:57:49;;;;;;;3.00;2.63;;;;;;;;;;10274271;28;20062;-77
2022/08/21 15:02:50;;;;;;;3.22;2.92;;;;;;;;;;10281492;28;20048;-77
2022/08/21 15:07:51;;;;;;;3.90;3.00;;;;;;;;;;10281128;28;20130;-76
2022/08/21 15:12:52;;;;;;;;;;;;;;;;;;10308476;28;20073;-76
2022/08/21 15:17:52;;;;;;;3.35;3.05;;;;;;;;;;10306761;28;19946;-75
2022/08/21 15:22:52;;;;;;;4.93;3.40;;;;;;;;;;10293986;28;20039;-77
2022/08/21 15:27:53;;;;;;;3.50;3.20;;;;;;;;;;10248272;28;20045;-77
2022/08/21 15:32:53;;;;;;;3.97;2.97;;;;;;;;;;10277209;28;20047;-76
2022/08/21 15:37:54;;;;;;;3.25;2.80;;;;;;;;;;10258933;28;20039;-77
2022/08/21 15:42:57;;;;;;;4.10;2.57;;;;;;;;;;10273854;28;20042;-78
2022/08/21 15:47:57;;;;;;;3.97;3.13;;;;;;;;;;10282386;28;20070;-76
2022/08/21 15:52:58;;;;;;;2.97;2.60;;;;;;;;;;10280540;28;20133;-77
2022/08/21 15:58:00;;;;;;;5.03;4.07;;;;;;;;;;10262308;28;20106;-79
2022/08/21 16:03:04;;;;;;;5.80;5.07;;;;;;;;;;10260266;28;20050;-76
2022/08/21 16:08:04;;;;;;;3.63;3.22;;;;;;;;;;10269579;28;20122;-77
2022/08/21 16:13:07;;;;;;;5.60;4.20;;;;;;;;;;10272992;28;20056;-77
2022/08/21 16:18:07;;;;;;;4.05;2.95;;;;;;;;;;10267625;28;20051;-78
2022/08/21 16:23:08;;;;;;;2.90;2.60;;;;;;;;;;10256457;28;20026;-77
2022/08/21 16:28:10;;;;;;;4.97;2.67;;;;;;;;;;10276230;28;20047;-76
2022/08/21 16:33:10;;;;;;;;;;;;;;;;;;10279605;28;20031;-76
2022/08/21 16:38:12;;;;;;;3.55;2.90;;;;;;;;;;10263801;28;19922;-77
2022/08/21 16:43:12;;;;;;;3.03;2.70;;;;;;;;;;10277574;28;20046;-77
2022/08/21 16:48:13;;;;;;;5.72;3.45;;;;;;;;;;10259050;28;20090;-76
2022/08/21 16:53:14;;;;;;;3.53;3.22;;;;;;;;;;10284132;28;20099;-76
2022/08/21 16:58:37;;;;;;;3.47;3.10;;;;;;;;;;10274018;28;20703;-76
2022/08/21 17:03:39;;;;;;;3.60;3.30;;;;;;;;;;10268410;28;20447;-76
2022/08/21 17:08:39;;;;;;;;;;;;;;;;;;10271733;28;20046;-76
2022/08/21 17:13:40;;;;;;;3.05;2.75;;;;;;;;;;10257709;28;19914;-77
2022/08/21 17:18:40;;;;;;;3.23;2.93;;;;;;;;;;10277096;28;20055;-77
2022/08/21 17:23:41;;;;;;;4.50;3.73;;;;;;;;;;10272209;28;20073;-76
2022/08/21 17:28:42;;;;;;;5.63;4.00;;;;;;;;;;10274886;28;20301;-78
2022/08/21 17:33:49;;;;;;;7.17;4.67;;;;;;;;;;10265219;28;20046;-77
2022/08/21 17:38:50;;;;;;;6.18;5.40;;;;;;;;;;10272796;28;20498;-75
2022/08/21 17:43:51;;;;;;;5.07;4.57;;;;;;;;;;10236440;28;20047;-76
2022/08/21 17:48:52;;;;;;;6.10;4.93;;;;;;;;;;10268958;28;20094;-77
2022/08/21 17:53:52;;;;;;;6.90;4.68;;;;;;;;;;10273927;28;20628;-76
2022/08/21 17:58:52;;;;;;;5.75;4.07;;;;;;;;;;10277064;28;20477;-79
2022/08/21 18:03:53;;;;;;;5.20;3.95;;;;;;;;;;10274103;28;20205;-80
2022/08/21 18:08:55;;;;;;;4.18;3.78;;;;;;;;;;10282755;28;20102;-78
2022/08/21 18:13:59;;;;;;;;;;;;;;;;;;10273719;28;20362;-78
2022/08/21 18:19:00;;;;;;;4.10;3.70;;;;;;;;;;10281592;28;19926;-81
2022/08/21 18:24:00;;;;;;;6.45;4.20;;;;;;;;;;10279235;28;20050;-79
2022/08/21 18:29:04;;;;;;;4.90;4.03;;;;;;;;;;10272227;28;20047;-76
2022/08/21 18:34:07;;;;;;;5.47;3.88;;;;;;;;;;10256419;28;20298;-77
2022/08/21 18:39:08;;;;;;;7.82;5.43;;;;;;;;;;10293184;28;20090;-76
2022/08/21 18:44:08;;;;;;;5.87;5.27;;;;;;;;;;10284427;28;20126;-75
2022/08/21 18:49:09;;;;;;;6.68;5.35;;;;;;;;;;10287843;28;20367;-76
2022/08/21 18:54:09;;;;;;;6.97;5.75;;;;;;;;;;10287944;28;20069;-77
2022/08/21 18:59:11;;;;;;;8.27;5.47;;;;;;;;;;10284860;28;20057;-69
2022/08/21 19:04:11;;;;;;;6.80;5.53;;;;;;;;;;10277969;28;20370;-74
2022/08/21 19:09:11;;;;;;;9.60;6.18;;;;;;;;;;10278913;28;20039;-74
2022/08/21 19:14:14;;;;;;;7.72;5.97;;;;;;;;;;10276203;28;20035;-75
2022/08/21 19:19:14;;;;;;;;;;;;;;;;;;10277925;28;20428;-77
2022/08/21 19:24:15;;;;;;;5.88;5.28;;;;;;;;;;10257307;28;20024;-75
2022/08/21 19:29:18;;;;;;;8.18;5.70;;;;;;;;;;10375273;23;20291;-77
2022/08/21 19:34:24;;;;;;;6.78;6.07;;;;;;;;;;10272628;28;20067;-83
2022/08/21 19:39:24;;;;;;;10.05;6.20;;;;;;;;;;10229755;28;20039;-80
2022/08/21 19:44:27;;;;;;;7.95;6.53;;;;;;;;;;10252955;28;20427;-81
2022/08/21 19:49:28;;;;;;;9.77;7.35;;;;;;;;;;10243455;29;20129;-81
2022/08/21 19:54:30;;;;;;;9.37;7.20;;;;;;;;;;10244296;28;20027;-78
2022/08/21 19:59:31;;;;;;;9.55;6.78;;;;;;;;;;10243423;28;20031;-77
2022/08/21 20:04:32;;;;;;;10.85;7.45;;;;;;;;;;10228307;28;20081;-80
2022/08/21 20:09:33;;;;;;;9.80;7.45;;;;;;;;;;10242748;28;20460;-77
2022/08/21 20:14:38;;;;;;;7.73;6.47;;;;;;;;;;10242733;28;20039;-78
2022/08/21 20:19:39;;;;;;;10.10;7.70;;;;;;;;;;10223121;28;20146;-77
2022/08/21 20:24:40;;;;;;;10.07;7.10;;;;;;;;;;10242248;28;20031;-78
2022/08/21 20:29:41;;;;;;;8.30;7.20;;;;;;;;;;10222991;28;20103;-78
2022/08/21 20:34:41;;;;;;;10.77;7.70;;;;;;;;;;10241540;28;20039;-77
2022/08/21 20:39:42;;;;;;;10.07;6.57;;;;;;;;;;10242445;28;20047;-83
2022/08/21 20:44:43;;;;;;;9.57;7.35;;;;;;;;;;10248680;28;20310;-79
2022/08/21 20:49:46;;;;;;;7.97;7.18;;;;;;;;;;10256350;28;20090;-78
2022/08/21 20:54:52;;;;;;;8.32;6.60;;;;;;;;;;10273457;28;20043;-76
2022/08/21 20:59:58;;;;;;;8.38;6.63;;;;;;;;;;10281513;28;20046;-77
2022/08/21 21:05:02;;;;;;;6.15;5.65;;;;;;;;;;10243853;28;20039;-76
2022/08/21 21:10:05;;;;;;;6.75;6.13;;;;;;;;;;10239124;28;20043;-79
2022/08/21 21:15:10;;;;;;;7.35;6.03;;;;;;;;;;10238154;28;20122;-79
2022/08/21 21:20:15;;;;;;;7.47;6.18;;;;;;;;;;10239072;28;20447;-80
2022/08/21 21:25:17;;;;;;;7.55;6.20;;;;;;;;;;10238429;28;20047;-79
2022/08/21 21:30:22;;;;;;;7.18;6.20;;;;;;;;;;10238781;28;20055;-75
2022/08/21 21:35:30;;;;;;;7.45;5.75;;;;;;;;;;10238280;28;20039;-78
2022/08/21 21:40:33;;;;;;;7.07;5.75;;;;;;;;;;10238910;28;20114;-79
2022/08/21 21:45:40;;;;;;;6.40;5.60;;;;;;;;;;10230272;29;20127;-77
2022/08/21 21:50:40;;;;;;;6.15;5.60;;;;;;;;;;10233782;28;20110;-78
2022/08/21 21:55:56;;;;;;;6.60;6.00;;;;;;;;;;10247644;28;20529;-79
2022/08/21 22:01:01;;;;;;;7.78;6.65;;;;;;;;;;10245562;28;20383;-81
2022/08/21 22:06:08;;;;;;;9.10;6.93;;;;;;;;;;10244949;28;20107;-80
2022/08/21 22:11:20;;;;;;;7.10;6.38;;;;;;;;;;10246285;28;20054;-77
2022/08/21 22:16:21;;;;;;;6.88;6.07;;;;;;;;;;10248694;28;20399;-79
2022/08/21 22:21:30;;;;;;;6.75;5.65;;;;;;;;;;10247303;28;20053;-80
2022/08/21 22:26:39;;;;;;;7.43;6.35;;;;;;;;;;10248471;28;20073;-77
2022/08/21 22:31:40;;;;;;;7.65;6.55;;;;;;;;;;10250401;28;20047;-77
2022/08/21 22:36:45;;;;;;;7.30;6.22;;;;;;;;;;10246298;29;20043;-75
2022/08/21 22:41:46;;;;;;;7.50;6.70;;;;;;;;;;10248689;28;20619;-79
2022/08/21 22:46:55;;;;;;;7.03;6.32;;;;;;;;;;10249723;28;20039;-77
2022/08/21 22:52:07;;;;;;;10.55;6.70;;;;;;;;;;10244025;28;20132;-77
2022/08/21 22:57:20;;;;;;;6.80;6.10;;;;;;;;;;10215850;28;20035;-76
2022/08/21 23:02:26;;;;;;;9.63;6.75;;;;;;;;;;10246029;28;20063;-77
2022/08/21 23:07:37;;;;;;;13.82;9.10;;;;;;;;;;10246394;28;20512;-81
2022/08/21 23:12:38;;;;;;;7.15;6.45;;;;;;;;;;10246595;28;20038;-78
2022/08/21 23:17:59;;;;;;;7.68;6.93;;;;;;;;;;10245172;28;20051;-78
2022/08/21 23:23:00;;;;;;;7.60;6.90;;;;;;;;;;10246299;28;20050;-78
2022/08/21 23:28:19;;;;;;;8.27;7.40;;;;;;;;;;10244913;28;20039;-80
2022/08/21 23:33:19;;;;;;;8.43;7.57;;;;;;;;;;10241087;28;20061;-75
2022/08/21 23:38:26;;;;;;;7.80;7.00;;;;;;;;;;10217998;29;20498;-78
2022/08/21 23:43:34;;;;;;;7.40;6.70;;;;;;;;;;10240184;28;20127;-86
2022/08/21 23:48:46;;;;;;;8.35;7.43;;;;;;;;;;10247355;28;20086;-80
2022/08/21 23:53:53;;;;;;;12.27;8.25;;;;;;;;;;10229700;28;20039;-83
2022/08/21 23:59:02;;;;;;;8.65;7.78;;;;;;;;;;10250259;28;20039;-88
